sensor_id;sensor_type;location;lat;lon;timestamp;temperature;humidity
28863;DHT22;15994;51.796;13.006;2023-05-07T00:00:55;9.60;99.90
28863;DHT22;15994;51.796;13.006;2023-05-07T00:03:24;9.60;99.90
28863;DHT22;15994;51.796;13.006;2023-05-07T00:05:51;9.60;99.90
28863;DHT22;15994;51.796;13.006;2023-05-07T00:08:18;9.60;99.90
28863;DHT22;15994;51.796;13.006;2023-05-07T00:10:45;9.60;99.90
28863;DHT22;15994;51.796;13.006;2023-05-07T00:13:12;9.60;99.90
28863;DHT22;15994;51.796;13.006;2023-05-07T00:15:39;9.60;99.90
28863;DHT22;15994;51.796;13.006;2023-05-07T00:18:05;9.60;99.90
28863;DHT22;15994;51.796;13.006;2023-05-07T00:20:32;9.60;99.90
28863;DHT22;15994;51.796;13.006;2023-05-07T00:22:59;9.60;99.90
28863;DHT22;15994;51.796;13.006;2023-05-07T00:25:25;9.60;99.90
28863;DHT22;15994;51.796;13.006;2023-05-07T00:27:52;9.60;99.90
28863;DHT22;15994;51.796;13.006;2023-05-07T00:30:18;9.50;99.90
28863;DHT22;15994;51.796;13.006;2023-05-07T00:32:45;9.50;99.90
28863;DHT22;15994;51.796;13.006;2023-05-07T00:35:14;9.50;99.90
28863;DHT22;15994;51.796;13.006;2023-05-07T00:37:40;9.40;99.90
28863;DHT22;15994;51.796;13.006;2023-05-07T00:40:07;9.50;99.90
28863;DHT22;15994;51.796;13.006;2023-05-07T00:42:34;9.60;99.90
28863;DHT22;15994;51.796;13.006;2023-05-07T00:45:00;9.60;99.90
28863;DHT22;15994;51.796;13.006;2023-05-07T00:47:27;9.50;99.90
28863;DHT22;15994;51.796;13.006;2023-05-07T00:49:53;9.50;99.90
28863;DHT22;15994;51.796;13.006;2023-05-07T00:52:21;9.60;99.90
28863;DHT22;15994;51.796;13.006;2023-05-07T00:54:50;9.50;99.90
28863;DHT22;15994;51.796;13.006;2023-05-07T00:57:16;9.60;99.90
28863;DHT22;15994;51.796;13.006;2023-05-07T00:59:43;9.60;99.90
28863;DHT22;15994;51.796;13.006;2023-05-07T01:02:10;9.60;99.90
28863;DHT22;15994;51.796;13.006;2023-05-07T01:04:37;9.60;99.90
28863;DHT22;15994;51.796;13.006;2023-05-07T01:07:03;9.60;99.90
28863;DHT22;15994;51.796;13.006;2023-05-07T01:09:31;9.60;99.90
28863;DHT22;15994;51.796;13.006;2023-05-07T01:11:58;9.60;99.90
28863;DHT22;15994;51.796;13.006;2023-05-07T01:14:25;9.50;99.90
28863;DHT22;15994;51.796;13.006;2023-05-07T01:16:52;9.50;99.90
28863;DHT22;15994;51.796;13.006;2023-05-07T01:19:19;9.50;99.90
28863;DHT22;15994;51.796;13.006;2023-05-07T01:21:48;9.50;99.90
28863;DHT22;15994;51.796;13.006;2023-05-07T01:24:15;9.50;99.90
28863;DHT22;15994;51.796;13.006;2023-05-07T01:26:43;9.50;99.90
28863;DHT22;15994;51.796;13.006;2023-05-07T01:29:10;9.50;99.90
28863;DHT22;15994;51.796;13.006;2023-05-07T01:31:37;9.50;99.90
28863;DHT22;15994;51.796;13.006;2023-05-07T01:34:05;9.50;99.90
28863;DHT22;15994;51.796;13.006;2023-05-07T01:36:33;9.50;99.90
28863;DHT22;15994;51.796;13.006;2023-05-07T01:39:01;9.50;99.90
28863;DHT22;15994;51.796;13.006;2023-05-07T01:41:28;9.50;99.90
28863;DHT22;15994;51.796;13.006;2023-05-07T01:43:55;9.40;99.90
28863;DHT22;15994;51.796;13.006;2023-05-07T01:46:24;9.40;99.90
28863;DHT22;15994;51.796;13.006;2023-05-07T01:48:52;9.50;99.90
28863;DHT22;15994;51.796;13.006;2023-05-07T01:51:19;9.40;99.90
28863;DHT22;15994;51.796;13.006;2023-05-07T01:53:46;9.50;99.90
28863;DHT22;15994;51.796;13.006;2023-05-07T01:56:17;9.50;99.90
28863;DHT22;15994;51.796;13.006;2023-05-07T01:58:45;9.30;99.90
28863;DHT22;15994;51.796;13.006;2023-05-07T02:01:13;9.40;99.90
28863;DHT22;15994;51.796;13.006;2023-05-07T02:03:40;9.40;99.90
28863;DHT22;15994;51.796;13.006;2023-05-07T02:06:06;9.40;99.90
28863;DHT22;15994;51.796;13.006;2023-05-07T02:08:33;9.30;99.90
28863;DHT22;15994;51.796;13.006;2023-05-07T02:10:59;9.40;99.90
28863;DHT22;15994;51.796;13.006;2023-05-07T02:13:29;9.40;99.90
28863;DHT22;15994;51.796;13.006;2023-05-07T02:15:57;9.40;99.90
28863;DHT22;15994;51.796;13.006;2023-05-07T02:18:23;9.40;99.90
28863;DHT22;15994;51.796;13.006;2023-05-07T02:20:50;9.40;99.90
28863;DHT22;15994;51.796;13.006;2023-05-07T02:23:16;9.40;99.90
28863;DHT22;15994;51.796;13.006;2023-05-07T02:25:43;9.40;99.90
28863;DHT22;15994;51.796;13.006;2023-05-07T02:28:09;9.40;99.90
28863;DHT22;15994;51.796;13.006;2023-05-07T02:30:37;9.40;99.90
28863;DHT22;15994;51.796;13.006;2023-05-07T02:33:03;9.30;99.90
28863;DHT22;15994;51.796;13.006;2023-05-07T02:35:30;9.30;99.90
28863;DHT22;15994;51.796;13.006;2023-05-07T02:37:57;9.30;99.90
28863;DHT22;15994;51.796;13.006;2023-05-07T02:40:23;9.40;99.90
28863;DHT22;15994;51.796;13.006;2023-05-07T02:42:50;9.40;99.90
28863;DHT22;15994;51.796;13.006;2023-05-07T02:45:16;9.40;99.90
28863;DHT22;15994;51.796;13.006;2023-05-07T02:47:43;9.40;99.90
28863;DHT22;15994;51.796;13.006;2023-05-07T02:50:10;9.40;99.90
28863;DHT22;15994;51.796;13.006;2023-05-07T02:52:36;9.40;99.90
28863;DHT22;15994;51.796;13.006;2023-05-07T02:55:03;9.30;99.90
28863;DHT22;15994;51.796;13.006;2023-05-07T02:57:30;9.30;99.90
28863;DHT22;15994;51.796;13.006;2023-05-07T02:59:58;9.40;99.90
28863;DHT22;15994;51.796;13.006;2023-05-07T03:02:24;9.40;99.90
28863;DHT22;15994;51.796;13.006;2023-05-07T03:04:51;9.40;99.90
28863;DHT22;15994;51.796;13.006;2023-05-07T03:07:17;9.50;99.90
28863;DHT22;15994;51.796;13.006;2023-05-07T03:09:44;9.50;99.90
28863;DHT22;15994;51.796;13.006;2023-05-07T03:12:10;9.40;99.90
28863;DHT22;15994;51.796;13.006;2023-05-07T03:14:37;9.40;99.90
28863;DHT22;15994;51.796;13.006;2023-05-07T03:17:03;9.50;99.90
28863;DHT22;15994;51.796;13.006;2023-05-07T03:19:30;9.50;99.90
28863;DHT22;15994;51.796;13.006;2023-05-07T03:21:56;9.50;99.90
28863;DHT22;15994;51.796;13.006;2023-05-07T03:24:23;9.50;99.90
28863;DHT22;15994;51.796;13.006;2023-05-07T03:26:50;9.50;99.90
28863;DHT22;15994;51.796;13.006;2023-05-07T03:29:16;9.50;99.90
28863;DHT22;15994;51.796;13.006;2023-05-07T03:31:43;9.50;99.90
28863;DHT22;15994;51.796;13.006;2023-05-07T03:34:10;9.40;99.90
28863;DHT22;15994;51.796;13.006;2023-05-07T03:36:36;9.50;99.90
28863;DHT22;15994;51.796;13.006;2023-05-07T03:39:03;9.60;99.90
28863;DHT22;15994;51.796;13.006;2023-05-07T03:41:30;9.60;99.90
28863;DHT22;15994;51.796;13.006;2023-05-07T03:43:56;9.60;99.90
28863;DHT22;15994;51.796;13.006;2023-05-07T03:46:23;9.60;99.90
28863;DHT22;15994;51.796;13.006;2023-05-07T03:48:51;9.50;99.90
28863;DHT22;15994;51.796;13.006;2023-05-07T03:51:18;9.50;99.90
28863;DHT22;15994;51.796;13.006;2023-05-07T03:53:44;9.50;99.90
28863;DHT22;15994;51.796;13.006;2023-05-07T03:56:11;9.50;99.90
28863;DHT22;15994;51.796;13.006;2023-05-07T03:58:37;9.50;99.90
28863;DHT22;15994;51.796;13.006;2023-05-07T04:01:04;9.50;99.90
28863;DHT22;15994;51.796;13.006;2023-05-07T04:03:30;9.50;99.90
28863;DHT22;15994;51.796;13.006;2023-05-07T04:05:57;9.50;99.90
28863;DHT22;15994;51.796;13.006;2023-05-07T04:08:23;9.50;99.90
28863;DHT22;15994;51.796;13.006;2023-05-07T04:10:57;9.60;99.90
28863;DHT22;15994;51.796;13.006;2023-05-07T04:13:24;9.60;99.90
28863;DHT22;15994;51.796;13.006;2023-05-07T04:15:52;9.60;99.90
28863;DHT22;15994;51.796;13.006;2023-05-07T04:18:18;9.60;99.90
28863;DHT22;15994;51.796;13.006;2023-05-07T04:20:45;9.60;99.90
28863;DHT22;15994;51.796;13.006;2023-05-07T04:23:12;9.50;99.90
28863;DHT22;15994;51.796;13.006;2023-05-07T04:25:38;9.60;99.90
28863;DHT22;15994;51.796;13.006;2023-05-07T04:28:05;9.60;99.90
28863;DHT22;15994;51.796;13.006;2023-05-07T04:30:31;9.60;99.90
28863;DHT22;15994;51.796;13.006;2023-05-07T04:32:58;9.60;99.90
28863;DHT22;15994;51.796;13.006;2023-05-07T04:35:24;9.50;99.90
28863;DHT22;15994;51.796;13.006;2023-05-07T04:37:51;9.60;99.90
28863;DHT22;15994;51.796;13.006;2023-05-07T04:40:18;9.60;99.90
28863;DHT22;15994;51.796;13.006;2023-05-07T04:42:45;9.60;99.90
28863;DHT22;15994;51.796;13.006;2023-05-07T04:45:11;9.60;99.90
28863;DHT22;15994;51.796;13.006;2023-05-07T04:47:38;9.70;99.90
28863;DHT22;15994;51.796;13.006;2023-05-07T04:50:06;9.70;99.90
28863;DHT22;15994;51.796;13.006;2023-05-07T04:52:33;9.70;99.90
28863;DHT22;15994;51.796;13.006;2023-05-07T04:55:00;9.70;99.90
28863;DHT22;15994;51.796;13.006;2023-05-07T04:57:27;9.70;99.90
28863;DHT22;15994;51.796;13.006;2023-05-07T04:59:54;9.60;99.90
28863;DHT22;15994;51.796;13.006;2023-05-07T05:02:20;9.60;99.90
28863;DHT22;15994;51.796;13.006;2023-05-07T05:04:47;9.70;99.90
28863;DHT22;15994;51.796;13.006;2023-05-07T05:07:13;9.70;99.90
28863;DHT22;15994;51.796;13.006;2023-05-07T05:09:40;9.70;99.90
28863;DHT22;15994;51.796;13.006;2023-05-07T05:12:06;9.70;99.90
28863;DHT22;15994;51.796;13.006;2023-05-07T05:14:33;9.70;99.90
28863;DHT22;15994;51.796;13.006;2023-05-07T05:16:59;9.60;99.90
28863;DHT22;15994;51.796;13.006;2023-05-07T05:19:26;9.70;99.90
28863;DHT22;15994;51.796;13.006;2023-05-07T05:21:52;9.70;99.90
28863;DHT22;15994;51.796;13.006;2023-05-07T05:24:19;9.80;99.90
28863;DHT22;15994;51.796;13.006;2023-05-07T05:26:46;9.80;99.90
28863;DHT22;15994;51.796;13.006;2023-05-07T05:29:12;9.80;99.90
28863;DHT22;15994;51.796;13.006;2023-05-07T05:31:39;9.80;99.90
28863;DHT22;15994;51.796;13.006;2023-05-07T05:34:06;9.80;99.90
28863;DHT22;15994;51.796;13.006;2023-05-07T05:36:33;9.80;99.90
28863;DHT22;15994;51.796;13.006;2023-05-07T05:38:59;9.80;99.90
28863;DHT22;15994;51.796;13.006;2023-05-07T05:41:26;9.80;99.90
28863;DHT22;15994;51.796;13.006;2023-05-07T05:43:52;9.90;99.90
28863;DHT22;15994;51.796;13.006;2023-05-07T05:46:19;9.90;99.90
28863;DHT22;15994;51.796;13.006;2023-05-07T05:48:45;9.90;99.90
28863;DHT22;15994;51.796;13.006;2023-05-07T05:51:12;9.90;99.90
28863;DHT22;15994;51.796;13.006;2023-05-07T05:53:38;9.90;99.90
28863;DHT22;15994;51.796;13.006;2023-05-07T05:56:05;9.90;99.90
28863;DHT22;15994;51.796;13.006;2023-05-07T05:58:32;9.90;99.90
28863;DHT22;15994;51.796;13.006;2023-05-07T06:00:59;9.90;99.90
28863;DHT22;15994;51.796;13.006;2023-05-07T06:03:27;9.80;99.90
28863;DHT22;15994;51.796;13.006;2023-05-07T06:05:54;9.80;99.90
28863;DHT22;15994;51.796;13.006;2023-05-07T06:08:20;9.80;99.90
28863;DHT22;15994;51.796;13.006;2023-05-07T06:10:47;9.80;99.90
28863;DHT22;15994;51.796;13.006;2023-05-07T06:13:13;9.90;99.90
28863;DHT22;15994;51.796;13.006;2023-05-07T06:15:40;9.90;99.90
28863;DHT22;15994;51.796;13.006;2023-05-07T06:18:06;9.90;99.90
28863;DHT22;15994;51.796;13.006;2023-05-07T06:20:33;9.90;99.90
28863;DHT22;15994;51.796;13.006;2023-05-07T06:22:59;9.80;99.90
28863;DHT22;15994;51.796;13.006;2023-05-07T06:25:26;9.80;99.90
28863;DHT22;15994;51.796;13.006;2023-05-07T06:27:53;9.80;99.90
28863;DHT22;15994;51.796;13.006;2023-05-07T06:30:19;9.80;99.90
28863;DHT22;15994;51.796;13.006;2023-05-07T06:32:46;9.80;99.90
28863;DHT22;15994;51.796;13.006;2023-05-07T06:35:12;9.90;99.90
28863;DHT22;15994;51.796;13.006;2023-05-07T06:37:39;9.80;99.90
28863;DHT22;15994;51.796;13.006;2023-05-07T06:40:08;9.80;99.90
28863;DHT22;15994;51.796;13.006;2023-05-07T06:42:35;9.80;99.90
28863;DHT22;15994;51.796;13.006;2023-05-07T06:45:02;9.90;99.90
28863;DHT22;15994;51.796;13.006;2023-05-07T06:47:29;9.90;99.90
28863;DHT22;15994;51.796;13.006;2023-05-07T06:49:55;9.80;99.90
28863;DHT22;15994;51.796;13.006;2023-05-07T06:52:22;9.90;99.90
28863;DHT22;15994;51.796;13.006;2023-05-07T06:54:48;10.00;99.90
28863;DHT22;15994;51.796;13.006;2023-05-07T06:57:15;10.20;99.90
28863;DHT22;15994;51.796;13.006;2023-05-07T06:59:41;10.20;99.90
28863;DHT22;15994;51.796;13.006;2023-05-07T07:02:08;10.20;99.90
28863;DHT22;15994;51.796;13.006;2023-05-07T07:04:34;10.30;99.90
28863;DHT22;15994;51.796;13.006;2023-05-07T07:07:01;10.40;99.90
28863;DHT22;15994;51.796;13.006;2023-05-07T07:09:27;10.30;99.90
28863;DHT22;15994;51.796;13.006;2023-05-07T07:11:54;10.40;99.90
28863;DHT22;15994;51.796;13.006;2023-05-07T07:14:20;10.40;99.90
28863;DHT22;15994;51.796;13.006;2023-05-07T07:16:47;10.40;99.90
28863;DHT22;15994;51.796;13.006;2023-05-07T07:19:14;10.30;99.90
28863;DHT22;15994;51.796;13.006;2023-05-07T07:21:41;10.20;99.90
28863;DHT22;15994;51.796;13.006;2023-05-07T07:24:08;10.30;99.90
28863;DHT22;15994;51.796;13.006;2023-05-07T07:26:34;10.30;99.90
28863;DHT22;15994;51.796;13.006;2023-05-07T07:29:01;10.30;99.90
28863;DHT22;15994;51.796;13.006;2023-05-07T07:31:27;10.50;99.90
28863;DHT22;15994;51.796;13.006;2023-05-07T07:33:54;10.70;99.90
28863;DHT22;15994;51.796;13.006;2023-05-07T07:36:21;10.70;99.90
28863;DHT22;15994;51.796;13.006;2023-05-07T07:38:47;10.80;99.90
28863;DHT22;15994;51.796;13.006;2023-05-07T07:41:14;10.90;99.90
28863;DHT22;15994;51.796;13.006;2023-05-07T07:43:40;11.00;99.90
28863;DHT22;15994;51.796;13.006;2023-05-07T07:46:07;10.90;99.90
28863;DHT22;15994;51.796;13.006;2023-05-07T07:48:33;11.10;99.90
28863;DHT22;15994;51.796;13.006;2023-05-07T07:51:00;11.20;99.90
28863;DHT22;15994;51.796;13.006;2023-05-07T07:53:26;11.30;99.90
28863;DHT22;15994;51.796;13.006;2023-05-07T07:55:53;11.50;99.90
28863;DHT22;15994;51.796;13.006;2023-05-07T07:58:19;11.40;99.90
28863;DHT22;15994;51.796;13.006;2023-05-07T08:00:47;11.60;99.90
28863;DHT22;15994;51.796;13.006;2023-05-07T08:03:13;11.60;99.90
28863;DHT22;15994;51.796;13.006;2023-05-07T08:05:42;11.50;99.90
28863;DHT22;15994;51.796;13.006;2023-05-07T08:08:08;11.50;99.90
28863;DHT22;15994;51.796;13.006;2023-05-07T08:10:35;11.40;99.90
28863;DHT22;15994;51.796;13.006;2023-05-07T08:13:03;11.50;99.90
28863;DHT22;15994;51.796;13.006;2023-05-07T08:15:30;11.70;99.90
28863;DHT22;15994;51.796;13.006;2023-05-07T08:17:58;11.60;99.90
28863;DHT22;15994;51.796;13.006;2023-05-07T08:20:25;11.70;99.90
28863;DHT22;15994;51.796;13.006;2023-05-07T08:22:52;11.90;99.90
28863;DHT22;15994;51.796;13.006;2023-05-07T08:25:18;11.90;99.90
28863;DHT22;15994;51.796;13.006;2023-05-07T08:27:45;11.80;99.90
28863;DHT22;15994;51.796;13.006;2023-05-07T08:30:12;11.70;99.90
28863;DHT22;15994;51.796;13.006;2023-05-07T08:32:38;11.60;99.90
28863;DHT22;15994;51.796;13.006;2023-05-07T08:35:05;11.80;99.90
28863;DHT22;15994;51.796;13.006;2023-05-07T08:37:32;11.90;99.90
28863;DHT22;15994;51.796;13.006;2023-05-07T08:39:58;12.20;99.90
28863;DHT22;15994;51.796;13.006;2023-05-07T08:42:26;12.40;99.90
28863;DHT22;15994;51.796;13.006;2023-05-07T08:44:57;12.40;99.90
28863;DHT22;15994;51.796;13.006;2023-05-07T08:47:29;12.50;99.90
28863;DHT22;15994;51.796;13.006;2023-05-07T08:49:58;12.20;99.90
28863;DHT22;15994;51.796;13.006;2023-05-07T08:52:25;12.20;99.90
28863;DHT22;15994;51.796;13.006;2023-05-07T08:54:52;12.30;99.90
28863;DHT22;15994;51.796;13.006;2023-05-07T08:57:19;12.30;99.90
28863;DHT22;15994;51.796;13.006;2023-05-07T08:59:46;12.50;99.90
28863;DHT22;15994;51.796;13.006;2023-05-07T09:02:13;12.60;99.90
28863;DHT22;15994;51.796;13.006;2023-05-07T09:04:40;12.50;99.90
28863;DHT22;15994;51.796;13.006;2023-05-07T09:07:07;12.40;99.90
28863;DHT22;15994;51.796;13.006;2023-05-07T09:09:33;12.30;99.90
28863;DHT22;15994;51.796;13.006;2023-05-07T09:12:00;12.40;99.90
28863;DHT22;15994;51.796;13.006;2023-05-07T09:14:27;12.40;99.90
28863;DHT22;15994;51.796;13.006;2023-05-07T09:16:56;12.50;99.90
28863;DHT22;15994;51.796;13.006;2023-05-07T09:19:23;12.80;99.90
28863;DHT22;15994;51.796;13.006;2023-05-07T09:22:06;12.90;99.90
28863;DHT22;15994;51.796;13.006;2023-05-07T09:24:33;12.70;99.90
28863;DHT22;15994;51.796;13.006;2023-05-07T09:27:02;12.60;99.90
28863;DHT22;15994;51.796;13.006;2023-05-07T09:29:28;12.60;99.90
28863;DHT22;15994;51.796;13.006;2023-05-07T09:32:01;12.40;99.90
28863;DHT22;15994;51.796;13.006;2023-05-07T09:34:27;12.50;99.90
28863;DHT22;15994;51.796;13.006;2023-05-07T09:36:54;12.50;99.90
28863;DHT22;15994;51.796;13.006;2023-05-07T09:39:23;12.70;99.90
28863;DHT22;15994;51.796;13.006;2023-05-07T09:41:49;12.90;99.90
28863;DHT22;15994;51.796;13.006;2023-05-07T09:44:18;12.90;99.90
28863;DHT22;15994;51.796;13.006;2023-05-07T09:46:46;13.00;99.90
28863;DHT22;15994;51.796;13.006;2023-05-07T09:49:21;13.20;99.90
28863;DHT22;15994;51.796;13.006;2023-05-07T09:51:50;13.20;99.90
28863;DHT22;15994;51.796;13.006;2023-05-07T09:54:18;13.20;99.90
28863;DHT22;15994;51.796;13.006;2023-05-07T09:56:45;13.20;99.90
28863;DHT22;15994;51.796;13.006;2023-05-07T09:59:13;13.10;99.90
28863;DHT22;15994;51.796;13.006;2023-05-07T10:01:41;13.00;99.90
28863;DHT22;15994;51.796;13.006;2023-05-07T10:04:08;13.10;99.90
28863;DHT22;15994;51.796;13.006;2023-05-07T10:06:35;13.00;99.90
28863;DHT22;15994;51.796;13.006;2023-05-07T10:09:03;12.70;99.90
28863;DHT22;15994;51.796;13.006;2023-05-07T10:11:35;12.40;99.90
28863;DHT22;15994;51.796;13.006;2023-05-07T10:14:04;12.50;99.90
28863;DHT22;15994;51.796;13.006;2023-05-07T10:16:32;12.50;99.90
28863;DHT22;15994;51.796;13.006;2023-05-07T10:19:03;12.50;99.90
28863;DHT22;15994;51.796;13.006;2023-05-07T10:21:30;12.50;99.90
28863;DHT22;15994;51.796;13.006;2023-05-07T10:26:33;12.50;99.90
28863;DHT22;15994;51.796;13.006;2023-05-07T10:29:05;12.40;99.90
28863;DHT22;15994;51.796;13.006;2023-05-07T10:31:45;12.60;99.90
28863;DHT22;15994;51.796;13.006;2023-05-07T10:34:20;12.70;99.90
28863;DHT22;15994;51.796;13.006;2023-05-07T10:36:48;12.60;99.90
28863;DHT22;15994;51.796;13.006;2023-05-07T10:39:17;12.70;99.90
28863;DHT22;15994;51.796;13.006;2023-05-07T10:41:43;12.60;99.90
28863;DHT22;15994;51.796;13.006;2023-05-07T10:44:10;12.70;99.90
28863;DHT22;15994;51.796;13.006;2023-05-07T10:46:37;12.90;99.90
28863;DHT22;15994;51.796;13.006;2023-05-07T10:51:32;12.90;99.90
28863;DHT22;15994;51.796;13.006;2023-05-07T10:56:38;13.20;99.90
28863;DHT22;15994;51.796;13.006;2023-05-07T10:59:31;13.40;99.90
28863;DHT22;15994;51.796;13.006;2023-05-07T11:02:00;13.60;99.90
28863;DHT22;15994;51.796;13.006;2023-05-07T11:04:28;13.60;99.90
28863;DHT22;15994;51.796;13.006;2023-05-07T11:15:08;13.30;99.90
28863;DHT22;15994;51.796;13.006;2023-05-07T11:17:55;13.40;99.90
28863;DHT22;15994;51.796;13.006;2023-05-07T11:26:07;13.70;99.90
28863;DHT22;15994;51.796;13.006;2023-05-07T11:28:41;13.70;99.90
28863;DHT22;15994;51.796;13.006;2023-05-07T11:31:08;13.60;99.90
28863;DHT22;15994;51.796;13.006;2023-05-07T11:33:38;13.50;99.90
28863;DHT22;15994;51.796;13.006;2023-05-07T11:36:05;13.60;99.90
28863;DHT22;15994;51.796;13.006;2023-05-07T11:38:35;13.60;99.90
28863;DHT22;15994;51.796;13.006;2023-05-07T11:41:03;13.70;99.90
28863;DHT22;15994;51.796;13.006;2023-05-07T11:43:31;13.80;99.90
28863;DHT22;15994;51.796;13.006;2023-05-07T11:46:18;13.90;99.90
28863;DHT22;15994;51.796;13.006;2023-05-07T11:48:44;14.20;99.90
28863;DHT22;15994;51.796;13.006;2023-05-07T11:51:11;14.10;99.90
28863;DHT22;15994;51.796;13.006;2023-05-07T11:53:40;14.20;99.90
28863;DHT22;15994;51.796;13.006;2023-05-07T11:56:12;14.20;99.90
28863;DHT22;15994;51.796;13.006;2023-05-07T11:58:40;14.40;99.90
28863;DHT22;15994;51.796;13.006;2023-05-07T12:01:11;14.30;99.90
28863;DHT22;15994;51.796;13.006;2023-05-07T12:03:40;14.10;99.90
28863;DHT22;15994;51.796;13.006;2023-05-07T12:06:09;14.30;99.90
28863;DHT22;15994;51.796;13.006;2023-05-07T12:08:40;14.30;99.90
28863;DHT22;15994;51.796;13.006;2023-05-07T12:11:09;14.40;99.90
28863;DHT22;15994;51.796;13.006;2023-05-07T12:13:37;14.30;99.90
28863;DHT22;15994;51.796;13.006;2023-05-07T12:16:04;14.20;99.90
28863;DHT22;15994;51.796;13.006;2023-05-07T12:18:31;14.10;99.90
28863;DHT22;15994;51.796;13.006;2023-05-07T12:20:59;14.00;99.90
28863;DHT22;15994;51.796;13.006;2023-05-07T12:23:26;14.10;99.90
28863;DHT22;15994;51.796;13.006;2023-05-07T12:25:53;14.20;99.90
28863;DHT22;15994;51.796;13.006;2023-05-07T12:28:19;14.20;99.90
28863;DHT22;15994;51.796;13.006;2023-05-07T12:30:47;14.30;99.90
28863;DHT22;15994;51.796;13.006;2023-05-07T12:33:19;14.20;99.90
28863;DHT22;15994;51.796;13.006;2023-05-07T12:35:47;14.30;99.90
28863;DHT22;15994;51.796;13.006;2023-05-07T12:38:16;14.10;99.90
28863;DHT22;15994;51.796;13.006;2023-05-07T12:40:44;14.10;99.90
28863;DHT22;15994;51.796;13.006;2023-05-07T12:43:16;14.30;99.90
28863;DHT22;15994;51.796;13.006;2023-05-07T12:45:44;14.30;99.90
28863;DHT22;15994;51.796;13.006;2023-05-07T12:48:11;14.30;99.90
28863;DHT22;15994;51.796;13.006;2023-05-07T12:50:37;14.30;99.90
28863;DHT22;15994;51.796;13.006;2023-05-07T12:53:05;14.20;99.90
28863;DHT22;15994;51.796;13.006;2023-05-07T12:55:47;13.90;99.90
28863;DHT22;15994;51.796;13.006;2023-05-07T13:00:52;14.30;99.90
28863;DHT22;15994;51.796;13.006;2023-05-07T13:03:23;14.60;99.90
28863;DHT22;15994;51.796;13.006;2023-05-07T13:05:50;14.60;99.90
28863;DHT22;15994;51.796;13.006;2023-05-07T13:08:37;14.70;99.90
28863;DHT22;15994;51.796;13.006;2023-05-07T13:11:07;14.20;99.90
28863;DHT22;15994;51.796;13.006;2023-05-07T13:13:36;14.20;99.90
28863;DHT22;15994;51.796;13.006;2023-05-07T13:16:03;14.10;99.90
28863;DHT22;15994;51.796;13.006;2023-05-07T13:18:31;14.10;99.90
28863;DHT22;15994;51.796;13.006;2023-05-07T13:20:58;14.10;99.90
28863;DHT22;15994;51.796;13.006;2023-05-07T13:23:25;14.00;99.90
28863;DHT22;15994;51.796;13.006;2023-05-07T13:25:52;14.00;99.90
28863;DHT22;15994;51.796;13.006;2023-05-07T13:28:19;13.90;99.90
28863;DHT22;15994;51.796;13.006;2023-05-07T13:30:46;14.00;99.90
28863;DHT22;15994;51.796;13.006;2023-05-07T13:33:17;14.00;99.90
28863;DHT22;15994;51.796;13.006;2023-05-07T13:35:44;13.90;99.90
28863;DHT22;15994;51.796;13.006;2023-05-07T13:38:10;13.90;99.90
28863;DHT22;15994;51.796;13.006;2023-05-07T13:40:37;14.00;99.90
28863;DHT22;15994;51.796;13.006;2023-05-07T13:43:05;14.10;99.90
28863;DHT22;15994;51.796;13.006;2023-05-07T13:45:33;14.20;99.90
28863;DHT22;15994;51.796;13.006;2023-05-07T13:48:00;14.40;99.90
28863;DHT22;15994;51.796;13.006;2023-05-07T13:50:27;14.40;99.90
28863;DHT22;15994;51.796;13.006;2023-05-07T13:52:55;14.60;99.90
28863;DHT22;15994;51.796;13.006;2023-05-07T13:55:23;14.90;99.90
28863;DHT22;15994;51.796;13.006;2023-05-07T13:57:57;15.00;99.90
28863;DHT22;15994;51.796;13.006;2023-05-07T14:00:27;15.20;99.90
28863;DHT22;15994;51.796;13.006;2023-05-07T14:02:55;15.30;99.90
28863;DHT22;15994;51.796;13.006;2023-05-07T14:05:23;15.30;99.90
28863;DHT22;15994;51.796;13.006;2023-05-07T14:07:53;15.20;99.90
28863;DHT22;15994;51.796;13.006;2023-05-07T14:10:20;15.30;99.90
28863;DHT22;15994;51.796;13.006;2023-05-07T14:12:47;15.20;99.90
28863;DHT22;15994;51.796;13.006;2023-05-07T14:15:13;15.20;99.90
28863;DHT22;15994;51.796;13.006;2023-05-07T14:17:41;15.30;99.90
28863;DHT22;15994;51.796;13.006;2023-05-07T14:20:08;15.20;99.90
28863;DHT22;15994;51.796;13.006;2023-05-07T14:22:35;14.70;99.90
28863;DHT22;15994;51.796;13.006;2023-05-07T14:25:02;14.70;99.90
28863;DHT22;15994;51.796;13.006;2023-05-07T14:27:29;14.70;99.90
28863;DHT22;15994;51.796;13.006;2023-05-07T14:29:55;14.90;99.90
28863;DHT22;15994;51.796;13.006;2023-05-07T14:32:22;14.90;99.90
28863;DHT22;15994;51.796;13.006;2023-05-07T14:34:48;14.80;99.90
28863;DHT22;15994;51.796;13.006;2023-05-07T14:37:15;14.50;99.90
28863;DHT22;15994;51.796;13.006;2023-05-07T14:39:43;14.50;99.90
28863;DHT22;15994;51.796;13.006;2023-05-07T14:42:09;14.60;99.90
28863;DHT22;15994;51.796;13.006;2023-05-07T14:44:37;14.60;99.90
28863;DHT22;15994;51.796;13.006;2023-05-07T14:47:05;14.80;99.90
28863;DHT22;15994;51.796;13.006;2023-05-07T14:49:33;14.90;99.90
28863;DHT22;15994;51.796;13.006;2023-05-07T14:52:00;14.80;99.90
28863;DHT22;15994;51.796;13.006;2023-05-07T14:54:26;14.90;99.90
28863;DHT22;15994;51.796;13.006;2023-05-07T14:56:53;15.00;99.90
28863;DHT22;15994;51.796;13.006;2023-05-07T14:59:21;15.00;99.90
28863;DHT22;15994;51.796;13.006;2023-05-07T15:01:50;14.90;99.90
28863;DHT22;15994;51.796;13.006;2023-05-07T15:04:16;15.00;99.90
28863;DHT22;15994;51.796;13.006;2023-05-07T15:06:43;15.00;99.90
28863;DHT22;15994;51.796;13.006;2023-05-07T15:09:09;15.00;99.90
28863;DHT22;15994;51.796;13.006;2023-05-07T15:11:36;15.00;99.90
28863;DHT22;15994;51.796;13.006;2023-05-07T15:14:02;14.80;99.90
28863;DHT22;15994;51.796;13.006;2023-05-07T15:16:29;14.60;99.90
28863;DHT22;15994;51.796;13.006;2023-05-07T15:18:55;14.70;99.90
28863;DHT22;15994;51.796;13.006;2023-05-07T15:21:22;14.50;99.90
28863;DHT22;15994;51.796;13.006;2023-05-07T15:23:49;14.30;99.90
28863;DHT22;15994;51.796;13.006;2023-05-07T15:26:15;14.30;99.90
28863;DHT22;15994;51.796;13.006;2023-05-07T15:28:42;14.20;99.90
28863;DHT22;15994;51.796;13.006;2023-05-07T15:31:08;14.10;99.90
28863;DHT22;15994;51.796;13.006;2023-05-07T15:33:35;14.20;99.90
28863;DHT22;15994;51.796;13.006;2023-05-07T15:36:01;14.00;99.90
28863;DHT22;15994;51.796;13.006;2023-05-07T15:38:28;13.90;99.90
28863;DHT22;15994;51.796;13.006;2023-05-07T15:40:55;14.10;99.90
28863;DHT22;15994;51.796;13.006;2023-05-07T15:43:21;14.40;99.90
28863;DHT22;15994;51.796;13.006;2023-05-07T15:45:48;14.60;99.90
28863;DHT22;15994;51.796;13.006;2023-05-07T15:48:14;15.00;99.90